Time;durP1;ratioP1;P1;durP2;ratioP2;P2;SDS_P1;SDS_P2;PMS_P1;PMS_P2;Temp;Humidity;BMP_temperature;BMP_pressure;BME280_temperature;BME280_humidity;BME280_pressure;Samples;Min_cycle;Max_cycle;Signal;HPM_P1;HPM_P2
2023/03/03 00:01:25;;;;;;;3.00;2.05;;;21.70;45.20;;;;;;5038669;28;20025;-68
2023/03/03 00:03:51;;;;;;;2.70;2.00;;;21.70;45.20;;;;;;5042244;28;20108;-67
2023/03/03 00:06:16;;;;;;;3.42;2.13;;;21.70;45.20;;;;;;5041403;28;20052;-69
2023/03/03 00:08:42;;;;;;;3.22;2.10;;;21.60;45.20;;;;;;5041624;28;20049;-68
2023/03/03 00:11:08;;;;;;;4.13;1.90;;;21.60;45.30;;;;;;5042552;28;20079;-68
2023/03/03 00:13:44;;;;;;;2.70;1.85;;;21.60;45.30;;;;;;5042474;28;20436;-67
2023/03/03 00:16:24;;;;;;;2.45;1.70;;;21.60;45.30;;;;;;5042646;28;20029;-68
2023/03/03 00:18:51;;;;;;;2.90;2.10;;;21.60;45.30;;;;;;5042517;28;20052;-68
2023/03/03 00:21:29;;;;;;;3.10;2.00;;;21.50;45.90;;;;;;5037694;28;20037;-68
2023/03/03 00:24:03;;;;;;;2.65;1.83;;;21.50;45.40;;;;;;5042590;28;20492;-67
2023/03/03 00:26:37;;;;;;;2.70;1.90;;;21.50;45.40;;;;;;5039458;28;20445;-67
2023/03/03 00:29:24;;;;;;;2.50;1.80;;;21.50;45.40;;;;;;5040836;28;20025;-68
2023/03/03 00:31:50;;;;;;;2.55;1.77;;;21.50;45.50;;;;;;5039729;28;20548;-68
2023/03/03 00:34:23;;;;;;;2.40;1.83;;;21.50;45.50;;;;;;5038930;28;20120;-68
2023/03/03 00:36:53;;;;;;;2.80;1.73;;;21.40;45.40;;;;;;5042294;28;20497;-68
2023/03/03 00:39:28;;;;;;;2.72;2.00;;;21.40;46.00;;;;;;5040688;28;20099;-68
2023/03/03 00:41:54;;;;;;;2.70;1.90;;;21.40;45.50;;;;;;5041809;28;20021;-68
2023/03/03 00:44:45;;;;;;;2.70;1.90;;;21.40;45.50;;;;;;5040214;28;20079;-68
2023/03/03 00:47:31;;;;;;;2.92;2.00;;;21.40;45.50;;;;;;5039668;28;20025;-68
2023/03/03 00:50:25;;;;;;;3.00;2.10;;;21.40;45.50;;;;;;5038901;28;20036;-68
2023/03/03 00:53:18;;;;;;;2.55;1.80;;;21.40;45.60;;;;;;5040398;28;20032;-68
2023/03/03 00:55:45;;;;;;;3.10;2.20;;;21.30;45.60;;;;;;5039433;28;20072;-68
2023/03/03 00:58:11;;;;;;;2.58;1.80;;;21.30;45.60;;;;;;5036303;28;20044;-68
2023/03/03 01:00:37;;;;;;;2.97;2.08;;;21.30;46.10;;;;;;5037951;28;20381;-68
2023/03/03 01:03:06;;;;;;;3.17;2.10;;;21.30;45.60;;;;;;5038021;28;20115;-68
2023/03/03 01:05:32;;;;;;;2.80;1.90;;;21.30;45.60;;;;;;5038259;28;20083;-68
2023/03/03 01:07:58;;;;;;;2.70;2.00;;;21.30;45.60;;;;;;5036079;28;20033;-68
2023/03/03 01:10:26;;;;;;;2.35;1.75;;;21.30;45.60;;;;;;5036115;28;20034;-68
2023/03/03 01:12:52;;;;;;;3.00;2.08;;;21.20;45.60;;;;;;5038798;28;20563;-68
2023/03/03 01:15:18;;;;;;;3.03;2.10;;;21.30;45.60;;;;;;5038286;28;20107;-68
2023/03/03 01:17:44;;;;;;;3.00;2.25;;;21.30;45.60;;;;;;5040007;28;20029;-68
2023/03/03 01:20:12;;;;;;;2.88;2.22;;;21.20;45.60;;;;;;5039522;28;20513;-68
2023/03/03 01:22:37;;;;;;;3.08;2.20;;;21.20;45.60;;;;;;5044851;28;20476;-68
2023/03/03 01:25:03;;;;;;;3.05;2.30;;;21.20;45.60;;;;;;5041524;28;20038;-68
2023/03/03 01:27:30;;;;;;;3.03;2.25;;;21.20;45.60;;;;;;5042180;28;20041;-68
2023/03/03 01:29:56;;;;;;;3.05;2.20;;;21.20;45.70;;;;;;5042204;28;20029;-68
2023/03/03 01:32:24;;;;;;;2.90;1.90;;;21.20;45.60;;;;;;5043869;28;20025;-68
2023/03/03 01:34:49;;;;;;;2.55;1.85;;;21.20;45.70;;;;;;5045135;28;20485;-68
2023/03/03 01:37:15;;;;;;;2.50;2.00;;;21.10;45.60;;;;;;5043704;28;20083;-68
2023/03/03 01:39:41;;;;;;;3.00;1.90;;;21.10;45.60;;;;;;5044635;28;20480;-68
2023/03/03 01:42:07;;;;;;;2.70;1.95;;;21.10;45.70;;;;;;5045464;28;20076;-68
2023/03/03 01:44:32;;;;;;;2.60;1.88;;;21.10;45.70;;;;;;5042139;28;20028;-68
2023/03/03 01:47:06;;;;;;;2.83;2.17;;;21.10;45.70;;;;;;5043137;28;20060;-67
2023/03/03 01:49:38;;;;;;;2.30;1.80;;;21.10;45.70;;;;;;5042785;28;20068;-69
2023/03/03 01:52:17;;;;;;;2.75;2.00;;;21.10;45.70;;;;;;5042032;28;20530;-67
2023/03/03 01:54:48;;;;;;;3.17;1.88;;;21.10;45.70;;;;;;5041420;28;20504;-67
2023/03/03 01:57:21;;;;;;;2.92;2.08;;;21.00;45.70;;;;;;5041068;28;20508;-67
2023/03/03 01:59:49;;;;;;;2.55;1.90;;;21.00;45.70;;;;;;5042520;28;20044;-67
2023/03/03 02:02:15;;;;;;;2.83;2.13;;;21.00;45.80;;;;;;5040354;28;20046;-68
2023/03/03 02:04:41;;;;;;;3.38;2.40;;;21.00;45.70;;;;;;5041984;28;20539;-67
2023/03/03 02:07:10;;;;;;;3.53;2.40;;;21.00;45.80;;;;;;5042284;28;20029;-67
2023/03/03 02:09:57;;;;;;;2.80;2.20;;;21.00;45.80;;;;;;5043118;28;20032;-67
2023/03/03 02:12:32;;;;;;;3.60;2.40;;;21.00;45.80;;;;;;5040699;28;20048;-68
2023/03/03 02:14:58;;;;;;;3.03;2.10;;;21.00;46.40;;;;;;5043439;28;20503;-67
2023/03/03 02:17:24;;;;;;;2.45;1.95;;;20.90;45.80;;;;;;5042042;28;20028;-68
2023/03/03 02:20:10;;;;;;;2.90;2.20;;;20.90;46.30;;;;;;5042525;28;20021;-68
2023/03/03 02:22:48;;;;;;;2.90;2.10;;;20.90;45.80;;;;;;5043022;28;20053;-68
2023/03/03 02:25:30;;;;;;;2.88;2.15;;;20.90;45.90;;;;;;5040811;28;20315;-67
2023/03/03 02:27:56;;;;;;;3.20;2.20;;;20.90;45.90;;;;;;5040487;28;20552;-67
2023/03/03 02:30:22;;;;;;;3.20;2.30;;;20.90;45.90;;;;;;5040303;28;20067;-68
2023/03/03 02:32:48;;;;;;;2.80;2.00;;;20.90;45.90;;;;;;5042531;28;20079;-68
2023/03/03 02:35:33;;;;;;;2.58;1.98;;;20.90;46.00;;;;;;5038465;28;20029;-67
2023/03/03 02:38:16;;;;;;;3.00;2.00;;;20.80;45.90;;;;;;5041088;28;20057;-68
2023/03/03 02:40:59;;;;;;;2.63;2.03;;;20.90;46.00;;;;;;5040552;28;20029;-68
2023/03/03 02:43:28;;;;;;;2.75;2.00;;;20.80;45.90;;;;;;5038565;28;20078;-68
2023/03/03 02:45:54;;;;;;;3.13;2.33;;;20.80;45.90;;;;;;5041726;28;20036;-68
2023/03/03 02:48:19;;;;;;;2.80;2.00;;;20.80;46.00;;;;;;5040083;28;20038;-68
2023/03/03 02:50:45;;;;;;;2.92;2.10;;;20.80;46.00;;;;;;5039533;28;20103;-68
2023/03/03 02:53:11;;;;;;;2.90;2.17;;;20.80;46.00;;;;;;5041184;28;20021;-68
2023/03/03 02:55:36;;;;;;;3.10;2.22;;;20.80;46.00;;;;;;5042157;28;20108;-68
2023/03/03 02:58:02;;;;;;;2.85;2.15;;;20.80;46.00;;;;;;5037892;28;20087;-68
2023/03/03 03:00:27;;;;;;;2.75;1.92;;;20.70;46.00;;;;;;5040501;28;20033;-68
2023/03/03 03:02:53;;;;;;;3.10;2.10;;;20.70;46.00;;;;;;5043631;28;20025;-69
2023/03/03 03:05:18;;;;;;;3.00;2.20;;;20.70;46.00;;;;;;5043381;28;20373;-68
2023/03/03 03:07:44;;;;;;;3.08;2.22;;;20.70;46.00;;;;;;5040011;28;20041;-69
2023/03/03 03:10:10;;;;;;;3.35;2.55;;;20.70;46.10;;;;;;5041441;28;20027;-69
2023/03/03 03:12:36;;;;;;;3.13;2.20;;;20.70;46.10;;;;;;5043172;28;20021;-68
2023/03/03 03:15:01;;;;;;;2.90;2.10;;;20.70;46.10;;;;;;5043201;28;20393;-69
2023/03/03 03:17:27;;;;;;;3.00;2.20;;;20.70;46.10;;;;;;5042007;28;20055;-68
2023/03/03 03:19:53;;;;;;;2.55;1.90;;;20.70;46.10;;;;;;5040443;28;20521;-68
2023/03/03 03:22:18;;;;;;;3.17;2.20;;;20.70;46.10;;;;;;5040632;28;20029;-68
2023/03/03 03:24:44;;;;;;;2.90;2.30;;;20.70;46.10;;;;;;5040773;28;20085;-68
2023/03/03 03:27:09;;;;;;;3.03;2.17;;;20.60;46.10;;;;;;5049745;28;20022;-68
2023/03/03 03:29:35;;;;;;;3.00;2.20;;;20.60;46.10;;;;;;5039167;28;20025;-68
2023/03/03 03:32:01;;;;;;;3.28;2.03;;;20.60;46.10;;;;;;5044661;28;20095;-68
2023/03/03 03:34:26;;;;;;;2.78;2.00;;;20.60;46.10;;;;;;5039936;28;20059;-68
2023/03/03 03:36:52;;;;;;;2.90;2.15;;;20.60;46.10;;;;;;5039854;28;20040;-68
2023/03/03 03:39:17;;;;;;;3.35;2.60;;;20.60;46.10;;;;;;5039747;28;20026;-68
2023/03/03 03:41:43;;;;;;;2.75;2.00;;;20.60;46.10;;;;;;5041518;28;20029;-68
2023/03/03 03:44:08;;;;;;;2.83;2.00;;;20.60;46.20;;;;;;5042037;28;20068;-68
2023/03/03 03:46:34;;;;;;;3.92;2.20;;;20.60;46.20;;;;;;5044599;28;20029;-69
2023/03/03 03:49:00;;;;;;;2.40;1.92;;;20.60;46.20;;;;;;5041880;28;20064;-68
2023/03/03 03:51:26;;;;;;;3.10;2.40;;;20.60;46.20;;;;;;5040274;28;20362;-69
2023/03/03 03:53:52;;;;;;;3.25;2.13;;;20.60;46.20;;;;;;5038165;28;20028;-68
2023/03/03 03:56:17;;;;;;;2.83;2.03;;;20.60;46.30;;;;;;5038046;28;20032;-68
2023/03/03 03:58:43;;;;;;;3.40;2.38;;;20.50;46.20;;;;;;5043169;28;20029;-68
2023/03/03 04:01:08;;;;;;;3.05;2.10;;;20.50;46.20;;;;;;5042840;28;20036;-68
2023/03/03 04:03:34;;;;;;;2.90;2.30;;;20.50;46.20;;;;;;5036937;28;20040;-68
2023/03/03 04:06:00;;;;;;;2.85;2.15;;;20.50;46.30;;;;;;5039684;28;20130;-68
2023/03/03 04:08:25;;;;;;;2.75;2.00;;;20.50;46.30;;;;;;5040405;28;20485;-68
2023/03/03 04:10:51;;;;;;;2.60;2.00;;;20.50;46.30;;;;;;5043146;28;20039;-68
2023/03/03 04:13:17;;;;;;;2.90;2.28;;;20.50;46.30;;;;;;5037652;28;20075;-68
2023/03/03 04:15:42;;;;;;;2.88;2.17;;;20.50;46.30;;;;;;5040916;28;20040;-68
2023/03/03 04:18:08;;;;;;;3.35;2.53;;;20.50;46.30;;;;;;5041444;28;20440;-68
2023/03/03 04:20:34;;;;;;;3.00;2.30;;;20.50;46.30;;;;;;5038946;28;20160;-68
2023/03/03 04:22:59;;;;;;;2.80;2.10;;;20.50;46.40;;;;;;5037347;28;20123;-68
2023/03/03 04:25:25;;;;;;;2.78;2.17;;;20.50;46.80;;;;;;5037649;28;20043;-68
2023/03/03 04:27:51;;;;;;;3.10;2.30;;;20.50;46.40;;;;;;5040479;28;20527;-69
2023/03/03 04:30:17;;;;;;;3.10;2.20;;;20.40;46.30;;;;;;5043037;28;20178;-68
2023/03/03 04:32:44;;;;;;;3.30;2.30;;;20.40;46.30;;;;;;5039011;28;20053;-69
2023/03/03 04:35:10;;;;;;;3.92;2.25;;;20.40;46.40;;;;;;5040416;28;20068;-68
2023/03/03 04:37:37;;;;;;;3.10;2.40;;;20.40;46.40;;;;;;5040676;28;20025;-68
2023/03/03 04:40:07;;;;;;;3.67;2.50;;;20.40;46.40;;;;;;5041867;28;20020;-68
2023/03/03 04:42:33;;;;;;;3.38;2.60;;;20.40;46.40;;;;;;5070080;28;20025;-68
2023/03/03 04:44:58;;;;;;;2.90;2.17;;;20.40;46.40;;;;;;5039077;28;20511;-68
2023/03/03 04:47:24;;;;;;;3.42;2.10;;;20.40;46.40;;;;;;5039167;28;20032;-68
2023/03/03 04:49:50;;;;;;;3.30;2.30;;;20.40;46.40;;;;;;5038572;28;20477;-68
2023/03/03 04:52:15;;;;;;;3.20;2.33;;;20.40;46.40;;;;;;5037765;28;20117;-68
2023/03/03 04:54:41;;;;;;;3.15;2.33;;;20.40;46.40;;;;;;5035400;28;20389;-68
2023/03/03 04:57:08;;;;;;;2.92;2.20;;;20.30;46.40;;;;;;5036661;28;20028;-68
2023/03/03 04:59:34;;;;;;;3.20;2.13;;;20.40;46.50;;;;;;5039059;28;20017;-68
2023/03/03 05:01:59;;;;;;;3.30;1.98;;;20.40;46.50;;;;;;5039025;28;20067;-68
2023/03/03 05:04:25;;;;;;;2.90;2.00;;;20.40;46.50;;;;;;5040091;28;20033;-68
2023/03/03 05:06:50;;;;;;;2.53;2.03;;;20.40;46.50;;;;;;5046003;28;20032;-68
2023/03/03 05:09:16;;;;;;;2.80;2.10;;;20.40;46.50;;;;;;5033793;28;20473;-68
2023/03/03 05:11:42;;;;;;;2.83;2.20;;;20.30;46.50;;;;;;5037188;28;20500;-68
2023/03/03 05:14:07;;;;;;;3.10;2.22;;;20.30;46.50;;;;;;5041054;28;20472;-68
2023/03/03 05:16:33;;;;;;;2.67;2.13;;;20.40;46.60;;;;;;5042468;28;20436;-68
2023/03/03 05:18:59;;;;;;;2.72;2.15;;;20.40;46.60;;;;;;5039817;28;20033;-68
2023/03/03 05:21:24;;;;;;;3.08;2.00;;;20.40;46.60;;;;;;5039601;28;20091;-68
2023/03/03 05:23:51;;;;;;;2.40;1.88;;;20.30;46.60;;;;;;5038545;28;20037;-68
2023/03/03 05:26:16;;;;;;;2.70;1.98;;;20.30;46.60;;;;;;5037110;28;20468;-68
2023/03/03 05:28:42;;;;;;;3.00;1.98;;;20.30;46.80;;;;;;5042046;28;20029;-68
2023/03/03 05:31:08;;;;;;;2.95;2.00;;;20.30;46.80;;;;;;5038020;28;20481;-68
2023/03/03 05:33:33;;;;;;;2.70;2.15;;;20.30;46.80;;;;;;5040683;28;20033;-68
2023/03/03 05:35:59;;;;;;;2.83;2.30;;;20.30;46.90;;;;;;5036855;28;20541;-68
2023/03/03 05:38:25;;;;;;;3.92;2.17;;;20.30;46.80;;;;;;5036869;28;20539;-68
2023/03/03 05:40:50;;;;;;;2.75;2.08;;;20.40;46.90;;;;;;5039152;28;20037;-68
2023/03/03 05:43:16;;;;;;;3.20;2.20;;;20.30;46.80;;;;;;5039345;28;20495;-68
2023/03/03 05:45:42;;;;;;;3.05;2.08;;;20.30;46.80;;;;;;5037581;28;20032;-69
2023/03/03 05:48:09;;;;;;;3.08;2.22;;;20.30;46.80;;;;;;5042078;28;20033;-68
2023/03/03 05:50:36;;;;;;;3.80;2.42;;;20.30;46.80;;;;;;5032789;28;20563;-68
2023/03/03 05:53:01;;;;;;;3.22;2.20;;;20.30;46.80;;;;;;5037078;28;20124;-68
2023/03/03 05:55:27;;;;;;;3.00;2.05;;;20.30;46.80;;;;;;5037216;28;20128;-68
2023/03/03 05:57:53;;;;;;;2.65;2.00;;;20.30;46.90;;;;;;5041554;28;20120;-68
2023/03/03 06:00:19;;;;;;;2.90;2.05;;;20.30;46.90;;;;;;5038256;28;20095;-68
2023/03/03 06:02:45;;;;;;;2.97;2.20;;;20.30;46.90;;;;;;5040360;28;20033;-68
2023/03/03 06:05:10;;;;;;;2.80;2.30;;;20.30;46.90;;;;;;5038400;28;20034;-68
2023/03/03 06:07:36;;;;;;;2.90;1.98;;;20.30;46.90;;;;;;5042423;28;20036;-68
2023/03/03 06:10:03;;;;;;;2.90;2.22;;;20.30;47.00;;;;;;5043031;28;20036;-68
2023/03/03 06:12:29;;;;;;;3.20;2.08;;;20.30;47.00;;;;;;5040930;28;20049;-68
2023/03/03 06:14:55;;;;;;;3.25;2.10;;;20.30;47.00;;;;;;5038242;28;20040;-68
2023/03/03 06:17:20;;;;;;;2.78;2.20;;;20.30;47.10;;;;;;5042021;28;20457;-68
2023/03/03 06:19:47;;;;;;;3.30;2.40;;;20.30;47.00;;;;;;5043698;28;20034;-68
2023/03/03 06:22:12;;;;;;;2.80;2.00;;;20.30;47.30;;;;;;5049443;28;20021;-68
2023/03/03 06:24:38;;;;;;;4.00;2.28;;;20.30;48.00;;;;;;5057085;28;20032;-68
2023/03/03 06:27:03;;;;;;;3.03;2.28;;;20.40;48.10;;;;;;5045026;28;20487;-68
2023/03/03 06:29:29;;;;;;;3.17;2.00;;;20.60;48.10;;;;;;5053364;28;20029;-68
2023/03/03 06:31:55;;;;;;;2.80;2.10;;;20.70;48.10;;;;;;5056415;28;20098;-68
2023/03/03 06:34:20;;;;;;;2.80;2.10;;;20.90;47.80;;;;;;5046123;28;20034;-68
2023/03/03 06:36:46;;;;;;;3.38;2.17;;;21.10;48.20;;;;;;5047755;28;20497;-68
2023/03/03 06:39:12;;;;;;;2.90;2.20;;;21.30;47.60;;;;;;5043528;28;20021;-68
2023/03/03 06:41:38;;;;;;;3.35;2.00;;;21.40;47.40;;;;;;5044808;28;20036;-68
2023/03/03 06:44:03;;;;;;;5.00;1.90;;;21.60;47.20;;;;;;5038077;28;20025;-68
2023/03/03 06:46:29;;;;;;;2.90;2.10;;;21.80;46.70;;;;;;5042997;28;20032;-68
2023/03/03 06:48:54;;;;;;;2.80;1.90;;;22.00;46.90;;;;;;5043808;28;20037;-68
2023/03/03 06:51:33;;;;;;;2.90;2.08;;;22.20;45.90;;;;;;5039168;28;20029;-68
2023/03/03 06:54:05;;;;;;;2.35;1.80;;;22.40;45.60;;;;;;5042571;28;20059;-68
2023/03/03 06:56:35;;;;;;;2.70;2.00;;;22.60;45.40;;;;;;5041383;28;20143;-68
2023/03/03 06:59:05;;;;;;;2.47;1.90;;;22.80;45.60;;;;;;5041132;28;20025;-68
2023/03/03 07:01:34;;;;;;;2.30;1.75;;;22.90;44.80;;;;;;5042593;28;20179;-68
2023/03/03 07:04:00;;;;;;;4.05;1.60;;;23.00;44.60;;;;;;5041737;28;20488;-68
2023/03/03 07:06:27;;;;;;;2.35;1.70;;;23.00;44.80;;;;;;5044259;28;20044;-68
2023/03/03 07:08:54;;;;;;;2.22;1.60;;;22.70;44.90;;;;;;5040261;28;20457;-68
2023/03/03 07:11:21;;;;;;;2.97;1.83;;;22.60;45.30;;;;;;5037436;28;20025;-68
2023/03/03 07:13:49;;;;;;;2.92;2.10;;;22.60;45.30;;;;;;5040902;28;20040;-68
2023/03/03 07:16:17;;;;;;;2.80;1.73;;;22.80;45.30;;;;;;5041145;28;20037;-68
2023/03/03 07:18:55;;;;;;;2.47;1.73;;;23.00;45.20;;;;;;5042747;28;20574;-68
2023/03/03 07:21:33;;;;;;;2.20;1.67;;;23.10;45.00;;;;;;5038278;28;20025;-68
2023/03/03 07:24:04;;;;;;;2.40;1.70;;;23.20;44.30;;;;;;5040907;28;20525;-68
2023/03/03 07:26:34;;;;;;;2.40;1.65;;;23.10;44.30;;;;;;5041261;28;20583;-68
2023/03/03 07:29:19;;;;;;;2.35;1.55;;;23.00;44.50;;;;;;5040230;28;20060;-69
2023/03/03 07:31:47;;;;;;;3.03;2.05;;;22.90;44.50;;;;;;5039158;28;20495;-69
2023/03/03 07:34:43;;;;;;;3.05;2.20;;;22.90;44.20;;;;;;5040434;28;20431;-69
2023/03/03 07:37:17;;;;;;;2.78;2.00;;;22.80;44.00;;;;;;5041040;28;20383;-69
2023/03/03 07:39:45;;;;;;;2.75;2.20;;;22.70;43.80;;;;;;5040916;28;20094;-69
2023/03/03 07:42:19;;;;;;;3.15;2.20;;;22.70;43.80;;;;;;5041598;28;20468;-69
2023/03/03 07:44:45;;;;;;;3.25;2.42;;;22.70;43.90;;;;;;5039110;28;20505;-69
2023/03/03 07:47:26;;;;;;;2.92;2.30;;;22.70;44.00;;;;;;5042355;28;20034;-69
2023/03/03 07:49:54;;;;;;;2.60;1.83;;;22.70;44.00;;;;;;5039861;28;20037;-68
2023/03/03 07:52:25;;;;;;;2.90;1.80;;;22.60;44.10;;;;;;5039943;28;20027;-69
2023/03/03 07:54:52;;;;;;;2.80;1.77;;;22.70;44.20;;;;;;5037429;28;20044;-69
2023/03/03 07:57:38;;;;;;;2.30;1.73;;;22.70;44.30;;;;;;5040490;28;20051;-69
2023/03/03 08:00:16;;;;;;;2.53;1.60;;;22.70;44.30;;;;;;5039873;28;20434;-68
2023/03/03 08:02:48;;;;;;;2.08;1.52;;;22.70;44.30;;;;;;5039540;28;20059;-69
2023/03/03 08:05:25;;;;;;;1.95;1.50;;;22.70;44.40;;;;;;5040944;28;20022;-70
2023/03/03 08:07:51;;;;;;;2.05;1.50;;;22.70;44.30;;;;;;5038587;28;20043;-70
2023/03/03 08:10:37;;;;;;;2.03;1.60;;;22.70;44.40;;;;;;5041049;28;20025;-70
2023/03/03 08:13:20;;;;;;;2.60;1.60;;;22.70;44.30;;;;;;5039494;28;20488;-69
2023/03/03 08:16:08;;;;;;;2.45;1.70;;;22.70;44.40;;;;;;5046988;28;20508;-68
2023/03/03 08:18:46;;;;;;;2.22;1.73;;;22.70;44.40;;;;;;5030111;28;20048;-70
2023/03/03 08:21:20;;;;;;;2.38;1.70;;;22.70;45.10;;;;;;5038111;28;20043;-69
2023/03/03 08:23:50;;;;;;;2.08;1.42;;;22.90;45.00;;;;;;5038272;28;20071;-69
2023/03/03 08:26:18;;;;;;;2.80;1.80;;;23.20;44.80;;;;;;5038522;28;20507;-69
2023/03/03 08:28:44;;;;;;;2.65;1.90;;;23.40;44.20;;;;;;5040969;28;20043;-69
2023/03/03 08:31:10;;;;;;;2.30;1.65;;;23.60;43.70;;;;;;5038487;28;20039;-68
2023/03/03 08:33:35;;;;;;;2.42;1.65;;;23.60;43.30;;;;;;5039252;28;20029;-69
2023/03/03 08:36:01;;;;;;;2.28;1.60;;;23.50;43.50;;;;;;5041066;28;20021;-69
2023/03/03 08:38:27;;;;;;;2.50;1.60;;;23.40;43.70;;;;;;5041200;28;20380;-68
2023/03/03 08:40:52;;;;;;;2.33;1.77;;;23.30;43.80;;;;;;5040619;28;20033;-69
2023/03/03 08:43:20;;;;;;;2.20;1.50;;;23.20;43.90;;;;;;5041540;28;20035;-69
2023/03/03 08:45:51;;;;;;;2.60;1.50;;;23.20;44.00;;;;;;5039359;28;20029;-68
2023/03/03 08:48:17;;;;;;;2.60;1.63;;;23.20;44.10;;;;;;5040882;28;20035;-69
2023/03/03 08:50:43;;;;;;;2.33;1.60;;;23.20;44.20;;;;;;5040417;28;20052;-69
2023/03/03 08:53:10;;;;;;;2.50;1.73;;;23.20;44.20;;;;;;5035596;28;20115;-69
2023/03/03 08:55:36;;;;;;;1.90;1.40;;;23.20;44.20;;;;;;5037090;28;20090;-69
2023/03/03 08:58:02;;;;;;;2.25;1.40;;;23.20;44.30;;;;;;5039233;28;20481;-69
2023/03/03 09:00:27;;;;;;;2.60;1.70;;;23.20;44.30;;;;;;5040012;28;20021;-69
2023/03/03 09:02:53;;;;;;;2.22;1.50;;;23.20;44.20;;;;;;5039347;28;20053;-69
2023/03/03 09:05:20;;;;;;;2.20;1.60;;;23.20;44.80;;;;;;5037830;28;20037;-69
2023/03/03 09:07:46;;;;;;;2.83;1.55;;;23.10;44.20;;;;;;5040447;28;20025;-68
2023/03/03 09:10:15;;;;;;;2.10;1.58;;;23.10;44.90;;;;;;5036236;28;20539;-68
2023/03/03 09:12:43;;;;;;;2.30;1.60;;;23.10;44.70;;;;;;5038806;28;20075;-69
2023/03/03 09:15:14;;;;;;;2.28;1.48;;;23.20;44.80;;;;;;5040383;28;20376;-69
2023/03/03 09:17:40;;;;;;;2.15;1.58;;;23.20;44.40;;;;;;5036950;28;20060;-69
2023/03/03 09:20:36;;;;;;;1.92;1.50;;;23.10;44.40;;;;;;5037858;28;20041;-69
2023/03/03 09:23:28;;;;;;;2.33;1.38;;;23.10;44.40;;;;;;5039476;28;20080;-69
2023/03/03 09:25:54;;;;;;;2.05;1.50;;;23.10;44.30;;;;;;5055847;28;20052;-69
2023/03/03 09:28:27;;;;;;;2.20;1.60;;;23.10;44.30;;;;;;5039047;28;20021;-70
2023/03/03 09:30:56;;;;;;;3.33;2.00;;;23.10;44.60;;;;;;5070947;28;20040;-70
2023/03/03 09:33:28;;;;;;;2.73;2.10;;;23.10;43.90;;;;;;5040926;28;20025;-69
2023/03/03 09:36:34;;;;;;;3.00;2.15;;;23.20;43.60;;;;;;5041363;28;20382;-69
2023/03/03 09:39:11;;;;;;;2.20;1.73;;;23.20;43.30;;;;;;5053849;28;20026;-69
2023/03/03 09:42:01;;;;;;;2.70;1.70;;;23.20;43.60;;;;;;5040082;28;20056;-69
2023/03/03 09:44:51;;;;;;;2.58;1.73;;;23.10;43.70;;;;;;5043894;28;20057;-69
2023/03/03 09:47:28;;;;;;;2.00;1.52;;;23.00;43.80;;;;;;5042019;28;20029;-68
2023/03/03 09:50:15;;;;;;;2.40;1.60;;;23.10;44.00;;;;;;5043847;28;20033;-69
2023/03/03 09:53:18;;;;;;;2.40;1.73;;;23.00;44.00;;;;;;5041692;28;20028;-69
2023/03/03 09:55:52;;;;;;;2.95;1.70;;;23.00;44.10;;;;;;5041825;28;20437;-69
2023/03/03 09:58:58;;;;;;;2.20;1.60;;;23.00;44.20;;;;;;5045017;28;20021;-69
2023/03/03 10:01:38;;;;;;;2.17;1.70;;;23.00;44.40;;;;;;5040508;28;20033;-69
2023/03/03 10:04:24;;;;;;;2.60;1.80;;;23.00;44.30;;;;;;5040768;28;20083;-69
2023/03/03 10:07:27;;;;;;;2.00;1.45;;;23.00;44.40;;;;;;5037438;28;20037;-70
2023/03/03 10:10:14;;;;;;;2.63;1.73;;;23.00;44.30;;;;;;5041253;28;20065;-69
2023/03/03 10:12:58;;;;;;;2.78;1.80;;;23.00;44.40;;;;;;5042813;28;20025;-69
2023/03/03 10:15:32;;;;;;;3.13;1.70;;;23.00;44.30;;;;;;5045463;28;20025;-69
2023/03/03 10:18:10;;;;;;;2.05;1.55;;;23.00;44.40;;;;;;5049689;28;20025;-69
2023/03/03 10:20:46;;;;;;;2.97;2.10;;;23.00;44.40;;;;;;5042865;28;20025;-69
2023/03/03 10:23:40;;;;;;;2.40;1.50;;;23.00;44.50;;;;;;5044389;28;20484;-69
2023/03/03 10:26:22;;;;;;;2.05;1.50;;;23.00;44.50;;;;;;5040061;28;20489;-69
2023/03/03 10:29:18;;;;;;;2.40;1.52;;;23.00;44.50;;;;;;5036091;28;20379;-69
2023/03/03 10:31:50;;;;;;;1.90;1.50;;;23.00;45.10;;;;;;5039753;28;20491;-69
2023/03/03 10:34:46;;;;;;;2.22;1.52;;;23.00;44.60;;;;;;5038969;28;20480;-69
2023/03/03 10:37:15;;;;;;;2.10;1.50;;;23.00;44.60;;;;;;5041986;28;20059;-69
2023/03/03 10:39:41;;;;;;;;;;;23.00;44.90;;;;;;5042065;28;20551;-69
2023/03/03 10:42:27;;;;;;;1.83;1.38;;;23.10;44.80;;;;;;5039785;28;19909;-70
2023/03/03 10:44:58;;;;;;;1.67;1.35;;;23.10;44.90;;;;;;5040992;28;20578;-70
2023/03/03 10:47:44;;;;;;;2.13;1.60;;;23.10;44.70;;;;;;5040556;28;20473;-70
2023/03/03 10:50:15;;;;;;;2.50;1.70;;;23.10;44.70;;;;;;5040992;28;20603;-69
2023/03/03 10:53:03;;;;;;;3.40;1.60;;;23.10;45.00;;;;;;5039360;28;20095;-69
2023/03/03 10:55:35;;;;;;;1.92;1.40;;;23.10;45.10;;;;;;5043229;28;20025;-69
2023/03/03 10:58:17;;;;;;;2.60;1.73;;;23.20;44.80;;;;;;5041380;28;20022;-68
2023/03/03 11:00:48;;;;;;;2.53;1.58;;;23.20;44.90;;;;;;5041990;28;20401;-69
2023/03/03 11:03:40;;;;;;;2.10;1.50;;;23.10;44.80;;;;;;5038353;28;20021;-69
2023/03/03 11:06:33;;;;;;;2.10;1.33;;;23.10;44.70;;;;;;5040258;28;20026;-70
2023/03/03 11:09:31;;;;;;;2.22;1.48;;;23.20;44.80;;;;;;5041493;28;20556;-70
2023/03/03 11:12:18;;;;;;;3.50;1.90;;;23.20;45.20;;;;;;5038934;28;20075;-70
2023/03/03 11:15:26;;;;;;;2.30;1.70;;;23.20;44.70;;;;;;5040011;28;20029;-70
2023/03/03 11:18:06;;;;;;;2.53;1.40;;;23.20;44.50;;;;;;5040857;28;20041;-69
2023/03/03 11:21:01;;;;;;;2.55;1.50;;;23.20;44.60;;;;;;5041320;28;20029;-68
2023/03/03 11:23:51;;;;;;;2.13;1.50;;;23.20;44.60;;;;;;5040588;28;20025;-69
2023/03/03 11:26:40;;;;;;;2.10;1.42;;;23.20;44.70;;;;;;5043041;28;20389;-68
2023/03/03 11:29:33;;;;;;;1.80;1.23;;;23.30;44.90;;;;;;5032749;28;20052;-69
2023/03/03 11:32:22;;;;;;;2.88;1.48;;;23.30;44.90;;;;;;5039121;28;20067;-69
2023/03/03 11:35:13;;;;;;;2.00;1.42;;;23.20;44.70;;;;;;5039549;28;20082;-69
2023/03/03 11:37:45;;;;;;;1.95;1.20;;;23.30;44.80;;;;;;5042040;28;20086;-69
2023/03/03 11:40:14;;;;;;;1.88;1.30;;;23.30;44.90;;;;;;5039463;28;20059;-68
2023/03/03 11:43:00;;;;;;;2.67;1.38;;;23.30;45.30;;;;;;5040922;28;20033;-68
2023/03/03 11:45:48;;;;;;;1.80;1.25;;;23.40;45.20;;;;;;5040218;28;20025;-69
2023/03/03 11:48:38;;;;;;;1.77;1.30;;;23.40;45.40;;;;;;5041053;28;20022;-69
2023/03/03 11:51:19;;;;;;;2.15;1.40;;;23.40;45.30;;;;;;5041470;28;20144;-69
2023/03/03 11:54:22;;;;;;;1.92;1.35;;;23.50;45.20;;;;;;5041532;28;20029;-69
2023/03/03 11:56:48;;;;;;;2.30;1.75;;;23.50;45.20;;;;;;5038539;28;20507;-69
2023/03/03 11:59:41;;;;;;;2.88;1.92;;;23.50;44.50;;;;;;5037443;28;20021;-69
2023/03/03 12:02:12;;;;;;;3.28;2.10;;;23.50;44.20;;;;;;5038803;28;20053;-68
2023/03/03 12:04:45;;;;;;;2.50;1.92;;;23.50;44.10;;;;;;5039375;28;20057;-68
2023/03/03 12:07:20;;;;;;;3.17;1.90;;;23.50;44.10;;;;;;5041443;28;20017;-69
2023/03/03 12:09:59;;;;;;;2.70;1.90;;;23.50;44.00;;;;;;5038406;28;20033;-70
2023/03/03 12:12:43;;;;;;;3.17;2.05;;;23.50;44.10;;;;;;5039265;28;20539;-69
2023/03/03 12:15:47;;;;;;;2.50;1.90;;;23.50;44.70;;;;;;5040334;28;20385;-68
2023/03/03 12:18:44;;;;;;;2.85;1.80;;;23.50;44.10;;;;;;5036805;28;20102;-68
2023/03/03 12:21:22;;;;;;;2.55;1.80;;;23.50;44.10;;;;;;5042110;28;20025;-70
2023/03/03 12:24:02;;;;;;;2.55;1.90;;;23.50;44.20;;;;;;5038941;28;20029;-69
2023/03/03 12:26:58;;;;;;;2.60;1.80;;;23.50;44.20;;;;;;5040457;28;20136;-69
2023/03/03 12:29:37;;;;;;;3.13;1.88;;;23.50;44.20;;;;;;5040037;28;20025;-69
2023/03/03 12:32:27;;;;;;;2.90;2.10;;;23.50;44.30;;;;;;5040307;28;20025;-69
2023/03/03 12:35:16;;;;;;;2.40;1.90;;;23.50;44.30;;;;;;5040565;28;20522;-69
2023/03/03 12:38:22;;;;;;;3.03;2.10;;;23.50;44.20;;;;;;5037158;28;20396;-69
2023/03/03 12:41:20;;;;;;;3.47;1.95;;;23.50;44.20;;;;;;5040345;28;20049;-69
2023/03/03 12:43:58;;;;;;;2.45;1.90;;;23.50;44.20;;;;;;5036225;28;20095;-70
2023/03/03 12:46:28;;;;;;;2.72;1.95;;;23.50;44.20;;;;;;5039335;28;20025;-69
2023/03/03 12:48:53;;;;;;;2.65;1.95;;;23.50;44.30;;;;;;5040578;28;20025;-69
2023/03/03 12:51:40;;;;;;;2.72;1.85;;;23.50;44.30;;;;;;5040054;28;20492;-70
2023/03/03 12:54:11;;;;;;;2.80;1.92;;;23.50;44.30;;;;;;5041308;28;20607;-69
2023/03/03 12:56:47;;;;;;;2.63;1.73;;;23.50;44.30;;;;;;5036451;28;20103;-69
2023/03/03 12:59:23;;;;;;;3.00;1.95;;;23.50;44.80;;;;;;5041712;28;20090;-70
2023/03/03 13:02:18;;;;;;;2.50;1.85;;;23.50;44.40;;;;;;5041056;28;20021;-70
2023/03/03 13:05:21;;;;;;;3.08;1.60;;;23.50;44.40;;;;;;5031596;28;20135;-70
2023/03/03 13:08:30;;;;;;;2.90;1.80;;;23.50;44.60;;;;;;5042499;28;20021;-70
2023/03/03 13:11:12;;;;;;;2.88;1.92;;;23.50;44.60;;;;;;5039286;28;20525;-71
2023/03/03 13:14:09;;;;;;;2.25;1.67;;;23.50;44.60;;;;;;5071579;28;20024;-70
2023/03/03 13:16:43;;;;;;;2.25;1.55;;;23.50;44.80;;;;;;5045191;28;20531;-71
2023/03/03 13:19:26;;;;;;;1.90;1.40;;;23.50;45.00;;;;;;5037859;28;20018;-70